Terminal Aerodrome Forecast
Issued by NWS

Home | Current Version | Previous Version | Text Only | Print | Product List | Glossary Off
Versions: 1 2 3 4 5 6 7 8 9 10 11 12 13 14 15 16 17 18 19 20 21

000
FTUS43 KLSX 271739 AAC
TAFUIN
TAF AMD
KUIN 271739Z 2718/2818 10007KT P6SM SCT120
     FM272200 11009KT P6SM VCTS BKN040CB
      TEMPO 2722/2724 2SM TSRA OVC020CB
     FM280300 11009KT P6SM OVC040
     FM281200 31008KT 3SM BR BKN015
     FM281600 31009KT P6SM BKN035=

USA.gov is the U.S. government's official web portal to all federal, state and local government web resources and services.